createdAt,value
2022-12-07T00:00:28.693Z,12.23
2022-12-07T00:03:14.823Z,12.13
2022-12-07T00:06:01.848Z,12.55
2022-12-07T00:08:48.808Z,11.93
2022-12-07T00:11:35.387Z,10.93
2022-12-07T00:14:21.909Z,11.60
2022-12-07T00:17:08.293Z,11.80
2022-12-07T00:19:54.245Z,11.70
2022-12-07T00:22:40.496Z,11.80
2022-12-07T00:25:27.342Z,11.57
2022-12-07T00:28:13.708Z,11.57
2022-12-07T00:31:04.843Z,10.57
2022-12-07T00:33:51.056Z,11.00
2022-12-07T00:36:37.245Z,11.20
2022-12-07T00:39:23.897Z,11.30
2022-12-07T00:42:10.087Z,11.13
2022-12-07T00:44:56.059Z,11.25
2022-12-07T00:47:42.301Z,11.68
2022-12-07T00:50:28.712Z,11.52
2022-12-07T00:53:14.906Z,11.10
2022-12-07T00:56:06.763Z,10.70
2022-12-07T00:58:54.446Z,10.43
2022-12-07T01:01:40.733Z,10.90
2022-12-07T01:04:27.135Z,10.82
2022-12-07T01:07:13.155Z,11.10
2022-12-07T01:10:00.368Z,10.48
2022-12-07T01:12:46.952Z,11.07
2022-12-07T01:15:32.932Z,10.57
2022-12-07T01:18:19.098Z,10.52
2022-12-07T01:21:05.469Z,10.68
2022-12-07T01:23:51.944Z,9.90
2022-12-07T01:26:38.365Z,11.15
2022-12-07T01:29:25.397Z,10.70
2022-12-07T01:32:12.280Z,10.63
2022-12-07T01:34:58.410Z,11.10
2022-12-07T01:37:44.555Z,10.40
2022-12-07T01:40:30.573Z,11.52
2022-12-07T01:43:19.251Z,10.15
2022-12-07T01:46:05.865Z,11.30
2022-12-07T01:48:52.010Z,10.45
2022-12-07T01:51:39.368Z,10.38
2022-12-07T01:54:27.467Z,10.50
2022-12-07T01:57:14.303Z,10.57
2022-12-07T02:00:01.289Z,11.13
2022-12-07T02:03:07.942Z,11.27
2022-12-07T02:05:54.882Z,11.05
2022-12-07T02:08:41.041Z,12.25
2022-12-07T02:11:28.096Z,10.88
2022-12-07T02:14:14.045Z,10.65
2022-12-07T02:17:00.289Z,11.25
2022-12-07T02:19:55.503Z,10.30
2022-12-07T02:22:44.712Z,11.27
2022-12-07T02:25:46.138Z,11.52
2022-12-07T02:28:35.286Z,10.77
2022-12-07T02:31:24.018Z,11.05
2022-12-07T02:34:15.460Z,10.25
2022-12-07T02:37:04.509Z,9.95
2022-12-07T02:39:55.378Z,11.05
2022-12-07T02:42:48.155Z,10.85
2022-12-07T02:45:36.165Z,8.35
2022-12-07T02:48:22.939Z,10.20
2022-12-07T02:51:09.454Z,10.43
2022-12-07T02:53:55.830Z,11.38
2022-12-07T02:56:51.127Z,10.05
2022-12-07T02:59:43.839Z,11.35
2022-12-07T03:02:49.142Z,10.82
2022-12-07T03:05:48.066Z,10.48
2022-12-07T03:08:34.932Z,10.27
2022-12-07T03:11:36.517Z,10.52
2022-12-07T03:14:29.491Z,10.45
2022-12-07T03:20:03.703Z,10.90
2022-12-07T03:22:50.101Z,9.95
2022-12-07T03:25:37.080Z,10.02
2022-12-07T03:28:25.470Z,9.82
2022-12-07T03:31:15.425Z,9.65
2022-12-07T03:34:10.982Z,9.95
2022-12-07T03:37:06.765Z,9.98
2022-12-07T03:39:52.604Z,9.20
2022-12-07T03:42:39.140Z,10.18
2022-12-07T03:45:29.610Z,9.45
2022-12-07T03:48:27.065Z,9.60
2022-12-07T03:51:23.759Z,9.02
2022-12-07T03:54:33.296Z,9.65
2022-12-07T03:57:20.858Z,8.75
2022-12-07T04:00:08.914Z,9.43
2022-12-07T04:03:02.253Z,9.77
2022-12-07T04:05:49.161Z,9.00
2022-12-07T04:08:35.116Z,9.10
2022-12-07T04:11:21.443Z,8.93
2022-12-07T04:14:19.866Z,9.30
2022-12-07T04:17:07.057Z,9.40
2022-12-07T04:19:53.474Z,9.60
2022-12-07T04:22:39.866Z,9.25
2022-12-07T04:25:26.033Z,9.13
2022-12-07T04:28:12.518Z,8.82
2022-12-07T04:30:58.690Z,9.13
2022-12-07T04:33:44.772Z,9.48
2022-12-07T04:36:31.040Z,9.35
2022-12-07T04:39:20.513Z,8.23
2022-12-07T04:42:06.742Z,8.70
2022-12-07T04:44:53.173Z,9.07
2022-12-07T04:47:39.387Z,9.35
2022-12-07T04:50:25.400Z,9.00
2022-12-07T04:53:11.596Z,9.38
2022-12-07T04:55:57.655Z,9.85
2022-12-07T04:58:44.208Z,9.93
2022-12-07T05:01:30.776Z,10.15
2022-12-07T05:04:18.848Z,9.25
2022-12-07T05:07:04.957Z,8.52
2022-12-07T05:09:51.088Z,10.15
2022-12-07T05:12:37.341Z,9.73
2022-12-07T05:15:23.570Z,9.50
2022-12-07T05:18:10.256Z,10.10
2022-12-07T05:20:56.327Z,10.10
2022-12-07T05:23:43.028Z,10.10
2022-12-07T05:26:30.501Z,9.15
2022-12-07T05:29:18.159Z,9.98
2022-12-07T05:32:04.624Z,9.35
2022-12-07T05:34:50.942Z,10.55
2022-12-07T05:37:36.850Z,10.35
2022-12-07T05:40:23.299Z,9.77
2022-12-07T05:43:09.444Z,10.43
2022-12-07T05:45:55.951Z,10.93
2022-12-07T05:48:41.962Z,12.02
2022-12-07T05:51:28.389Z,12.70
2022-12-07T05:54:15.058Z,12.52
2022-12-07T05:57:01.216Z,11.55
2022-12-07T05:59:47.485Z,11.95
2022-12-07T06:02:33.614Z,11.77
2022-12-07T06:05:20.183Z,11.23
2022-12-07T06:08:06.623Z,11.38
2022-12-07T06:11:12.830Z,10.88
2022-12-07T06:13:59.852Z,10.85
2022-12-07T06:16:46.186Z,11.55
2022-12-07T06:19:32.223Z,10.75
2022-12-07T06:22:18.679Z,11.45
2022-12-07T06:25:08.704Z,11.63
2022-12-07T06:27:56.450Z,11.15
2022-12-07T06:30:42.544Z,11.77
2022-12-07T06:33:29.133Z,11.85
2022-12-07T06:36:15.836Z,12.07
2022-12-07T06:39:02.138Z,11.98
2022-12-07T06:41:49.308Z,12.70
2022-12-07T06:44:35.487Z,13.02
2022-12-07T06:50:27.820Z,12.13
2022-12-07T06:53:14.284Z,12.52
2022-12-07T06:56:00.600Z,13.05
2022-12-07T06:58:46.923Z,12.38
2022-12-07T07:01:33.506Z,12.25
2022-12-07T07:04:19.619Z,12.52
2022-12-07T07:07:05.812Z,11.75
2022-12-07T07:09:52.022Z,12.35
2022-12-07T07:12:38.259Z,11.85
2022-12-07T07:15:24.573Z,11.75
2022-12-07T07:18:11.621Z,11.35
2022-12-07T07:20:58.124Z,13.30
2022-12-07T07:23:45.186Z,12.23
2022-12-07T07:26:31.822Z,12.27
2022-12-07T07:29:17.849Z,12.52
2022-12-07T07:32:06.817Z,12.00
2022-12-07T07:34:53.237Z,12.98
2022-12-07T07:37:39.291Z,12.77
2022-12-07T07:40:25.897Z,12.98
2022-12-07T07:43:12.146Z,12.63
2022-12-07T07:45:58.163Z,11.75
2022-12-07T07:48:44.294Z,11.60
2022-12-07T07:51:30.327Z,12.35
2022-12-07T07:54:16.623Z,12.88
2022-12-07T07:57:03.074Z,12.05
2022-12-07T07:59:49.361Z,11.95
2022-12-07T08:02:35.462Z,12.18
2022-12-07T08:05:21.709Z,12.95
2022-12-07T08:08:07.773Z,12.20
2022-12-07T08:10:53.926Z,11.55
2022-12-07T08:13:40.136Z,12.20
2022-12-07T08:16:26.869Z,12.45
2022-12-07T08:19:13.263Z,11.40
2022-12-07T08:22:00.282Z,11.20
2022-12-07T08:24:46.615Z,11.65
2022-12-07T08:27:32.870Z,10.85
2022-12-07T08:30:19.602Z,10.63
2022-12-07T08:33:06.007Z,11.05
2022-12-07T08:35:52.277Z,10.50
2022-12-07T08:38:39.001Z,11.10
2022-12-07T08:41:25.006Z,10.93
2022-12-07T08:44:11.212Z,11.25
2022-12-07T08:47:02.584Z,11.50
2022-12-07T08:49:50.644Z,10.60
2022-12-07T08:52:37.913Z,11.23
2022-12-07T08:55:25.210Z,11.25
2022-12-07T08:58:11.736Z,11.40
2022-12-07T09:00:58.205Z,10.60
2022-12-07T09:03:44.397Z,10.85
2022-12-07T09:06:30.832Z,11.25
2022-12-07T09:09:16.832Z,11.15
2022-12-07T09:12:03.072Z,11.10
2022-12-07T09:14:49.397Z,10.95
2022-12-07T09:17:36.463Z,11.13
2022-12-07T09:20:27.576Z,10.75
2022-12-07T09:23:14.634Z,10.90
2022-12-07T09:26:03.803Z,11.38
2022-12-07T09:28:53.984Z,11.48
2022-12-07T09:31:40.630Z,10.48
2022-12-07T09:34:27.934Z,11.13
2022-12-07T09:37:14.306Z,10.57
2022-12-07T09:40:00.422Z,10.32
2022-12-07T09:42:49.259Z,9.45
2022-12-07T09:45:39.971Z,11.10
2022-12-07T09:48:38.703Z,10.38
2022-12-07T09:51:26.310Z,10.68
2022-12-07T09:54:18.729Z,9.77
2022-12-07T09:57:05.592Z,9.80
2022-12-07T09:59:51.745Z,11.18
2022-12-07T10:02:38.571Z,10.38
2022-12-07T10:05:31.499Z,10.73
2022-12-07T10:08:18.632Z,7.50
2022-12-07T10:11:05.103Z,10.48
2022-12-07T10:13:55.150Z,10.77
2022-12-07T10:16:43.034Z,10.55
2022-12-07T10:19:31.217Z,9.90
2022-12-07T10:22:18.532Z,10.98
2022-12-07T10:25:19.315Z,10.85
2022-12-07T10:28:14.589Z,11.00
2022-12-07T10:31:06.326Z,9.80
2022-12-07T10:33:57.458Z,10.35
2022-12-07T10:36:43.494Z,10.32
2022-12-07T10:39:29.653Z,10.10
2022-12-07T10:42:24.078Z,11.13
2022-12-07T10:45:16.435Z,10.63
2022-12-07T10:48:28.604Z,9.90
2022-12-07T10:51:27.287Z,9.70
2022-12-07T10:54:16.198Z,9.77
2022-12-07T10:57:17.536Z,9.82
2022-12-07T11:00:04.151Z,9.73
2022-12-07T11:02:56.725Z,9.45
2022-12-07T11:05:46.526Z,9.80
2022-12-07T11:08:46.403Z,9.68
2022-12-07T11:11:36.671Z,10.65
2022-12-07T11:14:41.976Z,10.43
2022-12-07T11:17:32.824Z,9.68
2022-12-07T11:20:31.668Z,10.23
2022-12-07T11:23:21.495Z,15.10
2022-12-07T11:26:08.055Z,11.00
2022-12-07T11:29:13.107Z,10.52
2022-12-07T11:32:20.319Z,10.15
2022-12-07T11:35:10.121Z,15.25
2022-12-07T11:38:28.209Z,16.35
2022-12-07T11:41:22.838Z,12.40
2022-12-07T11:44:14.066Z,10.45
2022-12-07T11:47:03.521Z,10.50
2022-12-07T11:49:56.141Z,10.00
2022-12-07T11:52:42.953Z,10.70
2022-12-07T11:55:32.308Z,10.60
2022-12-07T11:58:37.370Z,10.10
2022-12-07T12:01:35.927Z,9.48
2022-12-07T12:04:54.848Z,10.73
2022-12-07T12:10:52.249Z,10.75
2022-12-07T12:17:13.732Z,10.38
2022-12-07T12:20:03.034Z,10.63
2022-12-07T12:22:59.454Z,11.27
2022-12-07T12:25:48.805Z,11.10
2022-12-07T12:28:46.695Z,11.82
2022-12-07T12:31:38.355Z,11.60
2022-12-07T12:34:32.669Z,11.25
2022-12-07T12:37:37.326Z,11.07
2022-12-07T12:40:23.866Z,10.50
2022-12-07T12:43:30.094Z,11.65
2022-12-07T12:46:34.762Z,11.55
2022-12-07T12:49:21.590Z,11.15
2022-12-07T12:52:11.162Z,10.82
2022-12-07T12:55:01.002Z,11.20
2022-12-07T12:57:53.022Z,11.52
2022-12-07T13:00:42.137Z,12.07
2022-12-07T13:03:30.243Z,11.93
2022-12-07T13:06:36.553Z,11.82
2022-12-07T13:09:27.699Z,12.85
2022-12-07T13:12:15.537Z,11.77
2022-12-07T13:15:02.352Z,11.80
2022-12-07T13:17:59.637Z,11.45
2022-12-07T13:20:56.754Z,11.68
2022-12-07T13:23:46.936Z,11.52
2022-12-07T13:26:44.002Z,12.23
2022-12-07T13:29:38.373Z,13.07
2022-12-07T13:32:29.793Z,11.93
2022-12-07T13:35:31.655Z,12.07
2022-12-07T13:38:21.342Z,12.52
2022-12-07T13:41:14.126Z,12.82
2022-12-07T13:44:03.981Z,12.18
2022-12-07T13:46:54.107Z,12.80
2022-12-07T13:49:53.207Z,12.45
2022-12-07T13:52:46.913Z,11.73
2022-12-07T13:55:33.389Z,12.85
2022-12-07T13:58:19.515Z,13.35
2022-12-07T14:01:07.173Z,12.73
2022-12-07T14:03:53.352Z,11.90
2022-12-07T14:06:48.686Z,12.88
2022-12-07T14:09:35.495Z,12.77
2022-12-07T14:12:21.801Z,12.55
2022-12-07T14:15:21.379Z,12.80
2022-12-07T14:18:08.026Z,13.70
2022-12-07T14:21:03.890Z,14.05
2022-12-07T14:24:20.294Z,13.60
2022-12-07T14:27:18.431Z,14.18
2022-12-07T14:30:05.353Z,13.73
2022-12-07T14:32:54.240Z,15.48
2022-12-07T14:35:41.644Z,14.57
2022-12-07T14:38:28.529Z,14.18
2022-12-07T14:41:35.644Z,13.80
2022-12-07T14:44:24.774Z,13.10
2022-12-07T14:50:23.143Z,13.55
2022-12-07T14:53:23.763Z,13.07
2022-12-07T14:56:09.965Z,13.90
2022-12-07T14:58:56.518Z,13.82
2022-12-07T15:01:42.903Z,13.13
2022-12-07T15:04:29.301Z,14.15
2022-12-07T15:07:24.898Z,13.15
2022-12-07T15:10:23.899Z,13.57
2022-12-07T15:13:29.298Z,13.73
2022-12-07T15:16:18.765Z,14.32
2022-12-07T15:19:27.371Z,14.40
2022-12-07T15:22:12.296Z,14.70
2022-12-07T15:24:58.230Z,14.45
2022-12-07T15:27:44.392Z,15.10
2022-12-07T15:30:30.457Z,15.13
2022-12-07T15:33:16.928Z,15.10
2022-12-07T15:36:02.925Z,14.68
2022-12-07T15:39:13.234Z,13.88
2022-12-07T15:41:55.784Z,14.30
2022-12-07T15:45:00.930Z,14.65
2022-12-07T15:48:26.250Z,14.93
2022-12-07T15:50:53.910Z,14.18
2022-12-07T15:53:40.125Z,14.30
2022-12-07T15:56:26.329Z,13.68
2022-12-07T15:59:12.547Z,13.48
2022-12-07T16:02:00.175Z,14.07
2022-12-07T16:04:46.494Z,14.00
2022-12-07T16:07:32.689Z,14.27
2022-12-07T16:10:19.114Z,13.40
2022-12-07T16:13:05.389Z,14.25
2022-12-07T16:15:52.508Z,14.15
2022-12-07T16:18:39.195Z,13.38
2022-12-07T16:21:25.985Z,12.35
2022-12-07T16:24:14.414Z,13.80
2022-12-07T16:27:00.442Z,13.85
2022-12-07T16:29:46.721Z,14.48
2022-12-07T16:32:32.852Z,13.60
2022-12-07T16:35:19.344Z,14.10
2022-12-07T16:38:05.437Z,14.20
2022-12-07T16:40:51.606Z,14.27
2022-12-07T16:43:38.210Z,14.05
2022-12-07T16:46:24.595Z,15.57
2022-12-07T16:49:17.519Z,15.23
2022-12-07T16:52:19.485Z,15.50
2022-12-07T16:55:06.621Z,15.95
2022-12-07T16:57:53.089Z,15.80
2022-12-07T17:00:39.490Z,17.00
2022-12-07T17:03:25.653Z,16.85
2022-12-07T17:06:16.320Z,16.58
2022-12-07T17:09:02.774Z,15.15
2022-12-07T17:11:48.898Z,14.52
2022-12-07T17:14:53.617Z,15.02
2022-12-07T17:17:40.121Z,15.57
2022-12-07T17:20:27.746Z,14.55
2022-12-07T17:23:13.793Z,14.27
2022-12-07T17:26:07.881Z,14.77
2022-12-07T17:28:54.578Z,14.52
2022-12-07T17:31:43.874Z,15.32
2022-12-07T17:37:20.422Z,15.43
2022-12-07T17:40:07.644Z,15.15
2022-12-07T17:42:54.035Z,15.48
2022-12-07T17:45:40.139Z,15.77
2022-12-07T17:48:26.493Z,15.35
2022-12-07T17:51:31.227Z,14.90
2022-12-07T17:54:17.614Z,15.43
2022-12-07T17:57:03.808Z,15.02
2022-12-07T17:59:51.283Z,16.00
2022-12-07T18:02:38.000Z,15.60
2022-12-07T18:05:24.559Z,15.65
2022-12-07T18:08:10.731Z,15.60
2022-12-07T18:11:00.831Z,16.00
2022-12-07T18:13:46.846Z,15.07
2022-12-07T18:16:37.001Z,15.60
2022-12-07T18:19:23.252Z,16.23
2022-12-07T18:22:09.491Z,16.40
2022-12-07T18:24:55.823Z,15.77
2022-12-07T18:27:42.507Z,15.60
2022-12-07T18:30:58.558Z,15.50
2022-12-07T18:33:36.073Z,14.60
2022-12-07T18:36:23.700Z,14.65
2022-12-07T18:39:10.800Z,15.15
2022-12-07T18:41:56.819Z,15.40
2022-12-07T18:44:43.277Z,15.43
2022-12-07T18:47:29.681Z,15.40
2022-12-07T18:50:15.911Z,15.00
2022-12-07T18:53:02.924Z,15.38
2022-12-07T18:55:49.826Z,15.55
2022-12-07T18:58:36.685Z,14.55
2022-12-07T19:01:23.621Z,15.65
2022-12-07T19:04:10.748Z,15.85
2022-12-07T19:06:57.290Z,15.75
2022-12-07T19:09:44.279Z,14.20
2022-12-07T19:12:32.989Z,14.25
2022-12-07T19:15:19.669Z,13.85
2022-12-07T19:18:06.636Z,14.02
2022-12-07T19:20:52.918Z,14.80
2022-12-07T19:23:39.027Z,14.20
2022-12-07T19:26:25.821Z,14.10
2022-12-07T19:29:12.407Z,13.63
2022-12-07T19:31:59.782Z,13.93
2022-12-07T19:34:47.255Z,14.50
2022-12-07T19:37:33.634Z,14.02
2022-12-07T19:40:20.028Z,14.05
2022-12-07T19:43:06.165Z,14.18
2022-12-07T19:45:52.352Z,13.93
2022-12-07T19:48:38.393Z,13.70
2022-12-07T19:51:25.333Z,13.73
2022-12-07T19:54:12.767Z,13.40
2022-12-07T19:56:59.825Z,13.75
2022-12-07T19:59:46.834Z,13.57
2022-12-07T20:02:33.482Z,13.43
2022-12-07T20:05:22.011Z,13.45
2022-12-07T20:08:08.457Z,13.95
2022-12-07T20:10:54.633Z,12.88
2022-12-07T20:13:40.839Z,13.30
2022-12-07T20:16:27.157Z,13.23
2022-12-07T20:19:14.289Z,13.98
2022-12-07T20:22:01.063Z,13.07
2022-12-07T20:24:48.441Z,13.48
2022-12-07T20:27:36.059Z,13.30
2022-12-07T20:30:23.245Z,14.18
2022-12-07T20:33:09.371Z,12.98
2022-12-07T20:35:59.914Z,14.65
2022-12-07T20:38:47.636Z,13.45
2022-12-07T20:41:53.190Z,12.75
2022-12-07T20:44:39.557Z,12.95
2022-12-07T20:47:25.727Z,14.18
2022-12-07T20:50:12.156Z,13.50
2022-12-07T20:53:00.543Z,13.27
2022-12-07T20:55:47.883Z,13.23
2022-12-07T20:58:34.834Z,13.05
2022-12-07T21:01:21.500Z,13.30
2022-12-07T21:04:08.030Z,13.05
2022-12-07T21:06:55.016Z,13.50
2022-12-07T21:09:41.266Z,13.52
2022-12-07T21:12:29.183Z,13.18
2022-12-07T21:15:15.571Z,13.65
2022-12-07T21:18:07.292Z,13.18
2022-12-07T21:20:53.975Z,13.20
2022-12-07T21:23:39.901Z,13.60
2022-12-07T21:26:27.427Z,14.35
2022-12-07T21:29:13.975Z,13.40
2022-12-07T21:32:00.340Z,13.38
2022-12-07T21:34:47.441Z,14.57
2022-12-07T21:37:33.804Z,14.50
2022-12-07T21:40:19.988Z,14.27
2022-12-07T21:43:06.212Z,14.85
2022-12-07T21:45:55.769Z,15.43
2022-12-07T21:48:42.425Z,15.13
2022-12-07T21:51:45.064Z,15.52
2022-12-07T21:54:32.539Z,14.48
2022-12-07T21:57:20.041Z,15.65
2022-12-07T22:00:08.124Z,16.63
2022-12-07T22:02:55.768Z,17.15
2022-12-07T22:05:42.145Z,16.33
2022-12-07T22:08:28.951Z,16.48
2022-12-07T22:11:15.791Z,17.90
2022-12-07T22:14:21.225Z,17.80
2022-12-07T22:17:07.805Z,17.73
2022-12-07T22:19:54.368Z,17.38
2022-12-07T22:22:40.698Z,17.15
2022-12-07T22:25:26.929Z,17.05
2022-12-07T22:28:12.978Z,17.80
2022-12-07T22:31:05.951Z,17.15
2022-12-07T22:33:52.619Z,17.77
2022-12-07T22:36:38.980Z,18.08
2022-12-07T22:39:25.132Z,18.50
2022-12-07T22:42:11.089Z,17.73
2022-12-07T22:44:57.961Z,17.35
2022-12-07T22:47:44.284Z,18.05
2022-12-07T22:50:30.544Z,17.52
2022-12-07T22:53:16.717Z,17.42
2022-12-07T22:56:03.738Z,16.17
2022-12-07T22:58:50.832Z,17.05
2022-12-07T23:01:37.725Z,17.20
2022-12-07T23:04:24.558Z,17.00
2022-12-07T23:07:11.347Z,17.60
2022-12-07T23:09:58.104Z,17.95
2022-12-07T23:13:02.954Z,16.80
2022-12-07T23:15:49.702Z,16.70
2022-12-07T23:18:36.436Z,16.75
2022-12-07T23:21:23.123Z,16.23
2022-12-07T23:24:11.126Z,15.73
2022-12-07T23:26:57.832Z,15.15
2022-12-07T23:29:44.645Z,15.65
2022-12-07T23:32:31.543Z,15.23
2022-12-07T23:35:18.296Z,15.45
2022-12-07T23:38:05.418Z,15.30
2022-12-07T23:40:52.235Z,15.25
2022-12-07T23:43:39.945Z,15.18
2022-12-07T23:46:28.857Z,15.25
2022-12-07T23:49:15.663Z,14.45
2022-12-07T23:52:02.405Z,13.30
2022-12-07T23:54:49.009Z,13.07
2022-12-07T23:57:35.755Z,12.93
